Time;durP1;ratioP1;P1;durP2;ratioP2;P2;SDS_P1;SDS_P2;PMS_P1;PMS_P2;Temp;Humidity;BMP_temperature;BMP_pressure;BME280_temperature;BME280_humidity;BME280_pressure;Samples;Min_cycle;Max_cycle;Signal;HPM_P1;HPM_P2
2023/05/17 00:00:54;;;;;;;7.90;4.05;;;;;;;;;;5115383;28;20040;-78
2023/05/17 00:03:40;;;;;;;12.30;4.47;;;;;;;;;;5115867;28;20473;-78
2023/05/17 00:06:25;;;;;;;12.15;4.15;;;;;;;;;;5115750;28;20043;-82
2023/05/17 00:09:11;;;;;;;13.18;4.07;;;;;;;;;;5115132;28;20472;-82
2023/05/17 00:11:56;;;;;;;13.68;3.83;;;;;;;;;;5114325;28;20400;-78
2023/05/17 00:14:42;;;;;;;15.98;4.97;;;;;;;;;;5115381;28;20039;-78
2023/05/17 00:17:28;;;;;;;13.63;4.40;;;;;;;;;;5115555;28;20044;-82
2023/05/17 00:20:13;;;;;;;10.75;4.95;;;;;;;;;;5115371;28;20477;-78
2023/05/17 00:22:59;;;;;;;10.02;4.65;;;;;;;;;;5115069;28;20031;-78
2023/05/17 00:25:45;;;;;;;13.18;5.72;;;;;;;;;;5115763;28;20469;-82
2023/05/17 00:28:30;;;;;;;10.60;5.25;;;;;;;;;;5114568;28;20039;-78
2023/05/17 00:31:16;;;;;;;14.15;5.30;;;;;;;;;;5115706;28;20373;-82
2023/05/17 00:34:02;;;;;;;9.32;4.80;;;;;;;;;;5115313;28;20051;-78
2023/05/17 00:36:48;;;;;;;13.70;5.45;;;;;;;;;;5114548;28;20040;-78
2023/05/17 00:39:33;;;;;;;11.80;4.55;;;;;;;;;;5114594;28;20043;-78
2023/05/17 00:42:19;;;;;;;14.02;5.38;;;;;;;;;;5106491;28;20400;-78
2023/05/17 00:45:04;;;;;;;12.75;4.93;;;;;;;;;;5114852;28;20388;-78
2023/05/17 00:47:50;;;;;;;9.43;4.53;;;;;;;;;;5105409;28;20035;-82
2023/05/17 00:50:35;;;;;;;10.30;4.20;;;;;;;;;;5106210;28;20040;-83
2023/05/17 00:53:21;;;;;;;8.60;4.10;;;;;;;;;;5106385;28;20047;-78
2023/05/17 00:56:06;;;;;;;15.63;4.85;;;;;;;;;;5106371;28;20043;-78
2023/05/17 00:58:52;;;;;;;9.45;4.18;;;;;;;;;;5114763;28;20473;-82
2023/05/17 01:01:42;;;;;;;9.60;4.43;;;;;;;;;;5114380;28;20389;-82
2023/05/17 01:04:28;;;;;;;11.20;4.53;;;;;;;;;;5115288;28;20040;-78
2023/05/17 01:07:16;;;;;;;10.13;4.35;;;;;;;;;;5114033;28;20392;-82
2023/05/17 01:10:06;;;;;;;8.07;4.13;;;;;;;;;;5114036;28;20496;-82
2023/05/17 01:13:09;;;;;;;8.45;4.55;;;;;;;;;;5105963;28;20032;-81
2023/05/17 01:16:17;;;;;;;12.45;7.00;;;;;;;;;;5114157;28;20484;-78
2023/05/17 01:19:52;;;;;;;12.68;7.63;;;;;;;;;;5105769;28;20040;-78
2023/05/17 01:23:19;;;;;;;11.98;6.30;;;;;;;;;;5017335;28;20072;-82
2023/05/17 01:26:07;;;;;;;16.98;7.05;;;;;;;;;;5114152;28;20044;-77
2023/05/17 01:28:54;;;;;;;14.75;7.60;;;;;;;;;;5113981;28;20043;-79
2023/05/17 01:31:40;;;;;;;18.25;8.68;;;;;;;;;;5114178;28;20413;-78
2023/05/17 01:34:27;;;;;;;18.00;7.80;;;;;;;;;;5114205;28;20036;-78
2023/05/17 01:37:13;;;;;;;19.15;7.70;;;;;;;;;;5113886;28;20039;-82
2023/05/17 01:39:58;;;;;;;14.60;7.70;;;;;;;;;;5113746;28;20047;-78
2023/05/17 01:42:45;;;;;;;17.77;8.30;;;;;;;;;;5105849;28;20480;-78
2023/05/17 01:45:43;;;;;;;14.68;7.15;;;;;;;;;;5091564;28;20473;-78
2023/05/17 01:48:38;;;;;;;11.63;6.78;;;;;;;;;;5114330;28;20500;-82
2023/05/17 01:51:30;;;;;;;15.90;7.05;;;;;;;;;;5113842;28;20040;-78
2023/05/17 01:54:21;;;;;;;18.90;7.00;;;;;;;;;;5105322;28;20036;-78
2023/05/17 01:57:08;;;;;;;13.38;6.05;;;;;;;;;;5113846;28;20481;-78
2023/05/17 01:59:58;;;;;;;11.93;5.63;;;;;;;;;;5105225;28;20040;-82
2023/05/17 02:02:44;;;;;;;11.55;5.75;;;;;;;;;;5113836;28;20044;-83
2023/05/17 02:05:29;;;;;;;8.40;5.13;;;;;;;;;;5105601;28;20047;-82
2023/05/17 02:08:15;;;;;;;10.00;5.13;;;;;;;;;;5114078;28;20040;-82
2023/05/17 02:11:00;;;;;;;15.07;5.18;;;;;;;;;;5112105;28;20048;-82
2023/05/17 02:13:49;;;;;;;12.30;5.30;;;;;;;;;;5113025;28;20044;-78
2023/05/17 02:16:35;;;;;;;8.82;5.13;;;;;;;;;;5112948;28;20036;-82
2023/05/17 02:19:20;;;;;;;10.43;5.53;;;;;;;;;;5104039;28;20043;-82
2023/05/17 02:22:06;;;;;;;11.55;6.07;;;;;;;;;;5104374;28;20036;-81
2023/05/17 02:24:51;;;;;;;10.85;6.00;;;;;;;;;;5112595;28;20052;-79
2023/05/17 02:27:37;;;;;;;12.13;5.38;;;;;;;;;;5112669;28;20047;-82
2023/05/17 02:30:23;;;;;;;11.27;5.70;;;;;;;;;;5104143;28;20052;-78
2023/05/17 02:33:08;;;;;;;8.63;5.60;;;;;;;;;;5112905;28;20039;-82
2023/05/17 02:35:54;;;;;;;10.98;5.35;;;;;;;;;;5106657;28;20039;-78
2023/05/17 02:38:39;;;;;;;10.55;5.03;;;;;;;;;;5116222;28;20044;-78
2023/05/17 02:41:25;;;;;;;9.95;5.20;;;;;;;;;;5116162;28;20408;-78
2023/05/17 02:44:10;;;;;;;6.80;4.63;;;;;;;;;;5107689;28;20047;-82
2023/05/17 02:46:55;;;;;;;8.63;4.97;;;;;;;;;;5107379;28;20040;-82
2023/05/17 02:49:40;;;;;;;11.05;5.47;;;;;;;;;;5107447;28;20039;-78
2023/05/17 02:52:25;;;;;;;11.55;5.53;;;;;;;;;;5107368;28;20500;-78
2023/05/17 02:55:11;;;;;;;10.48;5.00;;;;;;;;;;5107494;28;20482;-78
2023/05/17 02:57:56;;;;;;;11.18;5.60;;;;;;;;;;5115663;28;20043;-83
2023/05/17 03:00:45;;;;;;;11.88;6.13;;;;;;;;;;5107224;28;20496;-82
2023/05/17 03:03:32;;;;;;;16.50;6.00;;;;;;;;;;5107262;28;20044;-78
2023/05/17 03:06:18;;;;;;;17.60;6.40;;;;;;;;;;5107637;28;20047;-82
2023/05/17 03:09:03;;;;;;;20.25;6.78;;;;;;;;;;5107291;28;20035;-78
2023/05/17 03:11:49;;;;;;;13.45;6.07;;;;;;;;;;5095408;28;20056;-82
2023/05/17 03:14:43;;;;;;;11.68;5.95;;;;;;;;;;5101177;28;20036;-78
2023/05/17 03:17:29;;;;;;;11.50;5.82;;;;;;;;;;5100688;28;20044;-82
2023/05/17 03:20:14;;;;;;;12.32;5.68;;;;;;;;;;5094990;28;20048;-82
2023/05/17 03:23:00;;;;;;;14.48;6.70;;;;;;;;;;5100978;28;20044;-82
2023/05/17 03:25:46;;;;;;;13.45;6.45;;;;;;;;;;5100722;28;20051;-78
2023/05/17 03:28:32;;;;;;;13.50;6.50;;;;;;;;;;5100666;28;20044;-83
2023/05/17 03:31:17;;;;;;;12.35;4.82;;;;;;;;;;5100753;28;20399;-78
2023/05/17 03:34:03;;;;;;;10.75;4.50;;;;;;;;;;5100484;28;20048;-82
2023/05/17 03:36:48;;;;;;;7.38;4.53;;;;;;;;;;5100339;28;20393;-78
2023/05/17 03:39:34;;;;;;;7.28;4.20;;;;;;;;;;5100703;28;20393;-78
2023/05/17 03:42:20;;;;;;;11.65;4.53;;;;;;;;;;5100250;28;20040;-78
2023/05/17 03:45:06;;;;;;;10.07;4.55;;;;;;;;;;5100883;28;20389;-82
2023/05/17 03:47:51;;;;;;;10.15;4.18;;;;;;;;;;5099384;28;20051;-83
2023/05/17 03:50:39;;;;;;;6.95;4.78;;;;;;;;;;5094693;28;20044;-78
2023/05/17 03:53:25;;;;;;;16.65;8.18;;;;;;;;;;5099694;28;20044;-80
2023/05/17 03:56:11;;;;;;;15.80;8.48;;;;;;;;;;5099790;28;20401;-82
2023/05/17 03:58:57;;;;;;;11.98;6.93;;;;;;;;;;5100051;28;20044;-78
2023/05/17 04:01:42;;;;;;;14.82;6.13;;;;;;;;;;5099808;28;20044;-82
2023/05/17 04:04:28;;;;;;;14.25;5.57;;;;;;;;;;5100061;28;20043;-78
2023/05/17 04:07:14;;;;;;;11.30;5.63;;;;;;;;;;5099703;28;20043;-82
2023/05/17 04:10:01;;;;;;;13.77;5.90;;;;;;;;;;5099613;28;20040;-83
2023/05/17 04:12:48;;;;;;;13.27;7.20;;;;;;;;;;5105793;28;20500;-81
2023/05/17 04:15:35;;;;;;;20.85;11.73;;;;;;;;;;5106099;28;20039;-78
2023/05/17 04:18:22;;;;;;;14.75;6.72;;;;;;;;;;5105906;28;20472;-81
2023/05/17 04:21:08;;;;;;;11.00;5.85;;;;;;;;;;5114215;28;20040;-82
2023/05/17 04:23:54;;;;;;;13.13;6.93;;;;;;;;;;5105559;28;20048;-77
2023/05/17 04:26:40;;;;;;;7.45;5.28;;;;;;;;;;5105798;28;20047;-81
2023/05/17 04:29:27;;;;;;;11.15;5.60;;;;;;;;;;5105661;28;20044;-81
2023/05/17 04:32:13;;;;;;;10.98;5.47;;;;;;;;;;5104919;28;20051;-78
2023/05/17 04:34:59;;;;;;;8.70;5.13;;;;;;;;;;5105628;28;20493;-82
2023/05/17 04:37:44;;;;;;;8.75;5.53;;;;;;;;;;5106076;28;20047;-78
2023/05/17 04:40:41;;;;;;;9.70;5.70;;;;;;;;;;5105747;28;20040;-79
2023/05/17 04:43:26;;;;;;;8.50;5.45;;;;;;;;;;5106087;28;20047;-79
2023/05/17 04:46:12;;;;;;;12.80;6.43;;;;;;;;;;5106447;28;20051;-83
2023/05/17 04:48:59;;;;;;;10.85;5.43;;;;;;;;;;5106354;28;20039;-82
2023/05/17 04:51:45;;;;;;;11.65;5.03;;;;;;;;;;5091589;28;20047;-82
2023/05/17 04:54:31;;;;;;;10.55;5.00;;;;;;;;;;5105122;28;20043;-82
2023/05/17 04:57:16;;;;;;;11.50;5.30;;;;;;;;;;5104741;28;20043;-83
2023/05/17 05:00:14;;;;;;;11.95;6.50;;;;;;;;;;5105426;28;20040;-83
2023/05/17 05:03:03;;;;;;;16.73;7.28;;;;;;;;;;5105098;28;20484;-82
2023/05/17 05:05:49;;;;;;;15.15;6.60;;;;;;;;;;5104933;28;20051;-79
2023/05/17 05:08:36;;;;;;;16.17;7.13;;;;;;;;;;5104605;28;20040;-78
2023/05/17 05:11:23;;;;;;;11.50;6.78;;;;;;;;;;5099937;28;20048;-78
2023/05/17 05:14:09;;;;;;;9.82;5.68;;;;;;;;;;5105155;28;20039;-82
2023/05/17 05:16:55;;;;;;;16.58;6.18;;;;;;;;;;5113137;28;20036;-82
2023/05/17 05:19:40;;;;;;;15.15;6.28;;;;;;;;;;5104298;28;20047;-79
2023/05/17 05:22:26;;;;;;;14.88;5.88;;;;;;;;;;5104211;28;20035;-82
2023/05/17 05:25:12;;;;;;;17.85;5.90;;;;;;;;;;5104681;28;20043;-78
2023/05/17 05:27:58;;;;;;;14.10;5.68;;;;;;;;;;5113002;28;20039;-78
2023/05/17 05:30:43;;;;;;;11.95;5.20;;;;;;;;;;5104183;28;20492;-81
2023/05/17 05:33:31;;;;;;;15.00;5.15;;;;;;;;;;5101899;28;20043;-82
2023/05/17 05:36:15;;;;;;;13.95;4.50;;;;;;;;;;5095033;28;20508;-78
2023/05/17 05:39:02;;;;;;;12.18;4.55;;;;;;;;;;5101988;28;20582;-79
2023/05/17 05:41:50;;;;;;;6.88;4.05;;;;;;;;;;5104143;28;20032;-79
2023/05/17 05:44:37;;;;;;;9.95;4.40;;;;;;;;;;5105902;28;20040;-83
2023/05/17 05:47:23;;;;;;;8.57;3.33;;;;;;;;;;5105676;28;20036;-83
2023/05/17 05:50:09;;;;;;;13.15;3.97;;;;;;;;;;5104953;28;20043;-79
2023/05/17 05:52:56;;;;;;;5.72;3.20;;;;;;;;;;5105586;28;20036;-82
2023/05/17 05:55:42;;;;;;;8.93;3.53;;;;;;;;;;5113943;28;20040;-82
2023/05/17 05:58:29;;;;;;;7.22;3.72;;;;;;;;;;5105291;28;20043;-79
2023/05/17 06:01:15;;;;;;;6.65;3.70;;;;;;;;;;5091080;28;20036;-78
2023/05/17 06:04:00;;;;;;;11.63;4.05;;;;;;;;;;5113998;28;20044;-82
2023/05/17 06:06:46;;;;;;;9.57;3.50;;;;;;;;;;5113751;28;20477;-79
2023/05/17 06:09:32;;;;;;;7.95;4.32;;;;;;;;;;5114028;28;20047;-79
2023/05/17 06:12:17;;;;;;;7.00;3.85;;;;;;;;;;5117602;28;20052;-83
2023/05/17 06:15:03;;;;;;;7.47;3.28;;;;;;;;;;5118060;28;20036;-82
2023/05/17 06:17:49;;;;;;;9.80;3.00;;;;;;;;;;5117778;28;20043;-82
2023/05/17 06:20:34;;;;;;;6.80;3.40;;;;;;;;;;5117711;28;20036;-82
2023/05/17 06:23:19;;;;;;;6.28;3.30;;;;;;;;;;5117476;28;20051;-79
2023/05/17 06:26:09;;;;;;;10.75;3.75;;;;;;;;;;5109137;28;20043;-82
2023/05/17 06:28:53;;;;;;;4.75;3.55;;;;;;;;;;5117816;28;20047;-81
2023/05/17 06:31:38;;;;;;;6.30;3.15;;;;;;;;;;5117219;28;20453;-79
2023/05/17 06:34:25;;;;;;;9.15;3.47;;;;;;;;;;5117373;28;20040;-79
2023/05/17 06:37:09;;;;;;;12.38;3.20;;;;;;;;;;5109012;28;20044;-81
2023/05/17 06:40:04;;;;;;;9.23;4.30;;;;;;;;;;5117366;28;20485;-81
2023/05/17 06:42:50;;;;;;;8.75;3.95;;;;;;;;;;5117592;28;20039;-81
2023/05/17 06:45:35;;;;;;;12.73;4.38;;;;;;;;;;5108736;28;20047;-81
2023/05/17 06:48:21;;;;;;;9.70;3.90;;;;;;;;;;5118218;28;20481;-80
2023/05/17 06:51:06;;;;;;;13.63;4.13;;;;;;;;;;5116990;28;20043;-80
2023/05/17 06:53:52;;;;;;;9.50;4.03;;;;;;;;;;5117268;28;20039;-79
2023/05/17 06:56:37;;;;;;;6.95;3.58;;;;;;;;;;5117329;28;20039;-82
2023/05/17 06:59:23;;;;;;;9.18;4.10;;;;;;;;;;5116879;28;20048;-82
2023/05/17 07:02:09;;;;;;;6.43;3.53;;;;;;;;;;5116503;28;20052;-82
2023/05/17 07:04:55;;;;;;;7.55;3.22;;;;;;;;;;5116737;28;20482;-79
2023/05/17 07:07:41;;;;;;;9.32;3.17;;;;;;;;;;5117093;28;20044;-79
2023/05/17 07:10:26;;;;;;;9.40;4.00;;;;;;;;;;5116509;28;20036;-78
2023/05/17 07:13:12;;;;;;;12.35;3.45;;;;;;;;;;5116334;28;20048;-82
2023/05/17 07:15:57;;;;;;;12.27;3.92;;;;;;;;;;5116222;28;20036;-82
2023/05/17 07:18:42;;;;;;;10.02;3.40;;;;;;;;;;5116497;28;20047;-78
2023/05/17 07:21:28;;;;;;;11.60;4.10;;;;;;;;;;5116142;28;20035;-81
2023/05/17 07:24:14;;;;;;;6.97;3.30;;;;;;;;;;5115595;28;20043;-81
2023/05/17 07:27:19;;;;;;;9.77;3.42;;;;;;;;;;5114822;28;20044;-78
2023/05/17 07:30:34;;;;;;;7.50;2.97;;;;;;;;;;5115137;28;20047;-78
2023/05/17 07:33:36;;;;;;;12.82;3.92;;;;;;;;;;5114548;28;20051;-78
2023/05/17 07:36:35;;;;;;;10.73;2.90;;;;;;;;;;5115826;28;20051;-78
2023/05/17 07:39:26;;;;;;;10.45;2.67;;;;;;;;;;5114874;28;20052;-83
2023/05/17 07:42:11;;;;;;;8.45;3.17;;;;;;;;;;5115716;28;20040;-82
2023/05/17 07:44:56;;;;;;;6.72;2.47;;;;;;;;;;5116196;28;20040;-82
2023/05/17 07:47:42;;;;;;;9.55;2.75;;;;;;;;;;5116324;28;20051;-82
2023/05/17 07:50:29;;;;;;;5.85;2.92;;;;;;;;;;5115728;28;20044;-78
2023/05/17 07:53:14;;;;;;;9.45;3.08;;;;;;;;;;5107408;28;20401;-79
2023/05/17 07:56:00;;;;;;;7.20;2.38;;;;;;;;;;5116070;28;20043;-82
2023/05/17 07:58:45;;;;;;;11.43;2.40;;;;;;;;;;5115918;28;20039;-78
2023/05/17 08:01:31;;;;;;;4.20;1.92;;;;;;;;;;5115099;28;20396;-78
2023/05/17 08:04:18;;;;;;;6.57;2.30;;;;;;;;;;5116100;28;20040;-79
2023/05/17 08:07:04;;;;;;;6.13;2.38;;;;;;;;;;5115503;28;20040;-82
2023/05/17 08:09:50;;;;;;;5.45;2.30;;;;;;;;;;5115587;28;20477;-78
2023/05/17 08:12:35;;;;;;;6.35;2.55;;;;;;;;;;5114285;28;20044;-82
2023/05/17 08:15:21;;;;;;;11.90;2.35;;;;;;;;;;5114432;28;20469;-84
2023/05/17 08:18:06;;;;;;;7.85;2.45;;;;;;;;;;5100304;28;20051;-80
2023/05/17 08:20:52;;;;;;;16.23;6.65;;;;;;;;;;5115775;28;20508;-85
2023/05/17 08:23:39;;;;;;;7.68;3.28;;;;;;;;;;5115232;28;20055;-82
2023/05/17 08:26:24;;;;;;;13.27;6.05;;;;;;;;;;5115179;28;20040;-81
2023/05/17 08:29:10;;;;;;;4.90;2.50;;;;;;;;;;5115391;28;20484;-81
2023/05/17 08:31:55;;;;;;;9.98;4.10;;;;;;;;;;5115231;28;20392;-84
2023/05/17 08:34:41;;;;;;;5.00;1.73;;;;;;;;;;5122046;28;20385;-80
2023/05/17 08:37:26;;;;;;;6.32;2.05;;;;;;;;;;5115024;28;20485;-79
2023/05/17 08:40:13;;;;;;;6.90;2.40;;;;;;;;;;5114891;28;20047;-80
2023/05/17 08:43:01;;;;;;;5.68;2.20;;;;;;;;;;5114955;28;20031;-79
2023/05/17 08:45:48;;;;;;;9.13;2.00;;;;;;;;;;5114907;28;20043;-79
2023/05/17 08:48:37;;;;;;;9.95;2.38;;;;;;;;;;5115178;28;20039;-80
2023/05/17 08:51:23;;;;;;;7.03;1.83;;;;;;;;;;5114432;28;20051;-80
2023/05/17 08:54:08;;;;;;;5.53;1.80;;;;;;;;;;5114730;28;20039;-81
2023/05/17 08:56:58;;;;;;;8.63;2.28;;;;;;;;;;5114738;28;20485;-80
2023/05/17 08:59:45;;;;;;;6.75;2.17;;;;;;;;;;5121441;28;20073;-80
2023/05/17 09:02:31;;;;;;;6.00;2.05;;;;;;;;;;5114075;28;20790;-80
2023/05/17 09:05:17;;;;;;;10.60;2.13;;;;;;;;;;5114264;28;20384;-82
2023/05/17 09:08:04;;;;;;;10.85;5.65;;;;;;;;;;5114379;28;20048;-80
2023/05/17 09:10:49;;;;;;;7.30;2.17;;;;;;;;;;5114525;28;20404;-79
2023/05/17 09:13:34;;;;;;;6.05;1.58;;;;;;;;;;5114888;28;20039;-78
2023/05/17 09:16:20;;;;;;;5.20;1.50;;;;;;;;;;5113976;28;20473;-78
2023/05/17 09:19:07;;;;;;;4.50;1.70;;;;;;;;;;5114089;28;20039;-81
2023/05/17 09:21:54;;;;;;;17.55;7.10;;;;;;;;;;5114046;28;20047;-83
2023/05/17 09:24:41;;;;;;;6.47;2.00;;;;;;;;;;5114308;28;20480;-81
2023/05/17 09:27:29;;;;;;;6.10;1.98;;;;;;;;;;5105412;28;20055;-82
2023/05/17 09:30:14;;;;;;;4.35;1.60;;;;;;;;;;5099152;28;20480;-82
2023/05/17 09:33:06;;;;;;;3.60;1.60;;;;;;;;;;5098907;28;20043;-81
2023/05/17 09:35:51;;;;;;;2.85;1.50;;;;;;;;;;5114196;28;20036;-80
2023/05/17 09:38:36;;;;;;;6.97;1.83;;;;;;;;;;5105310;28;20416;-83
2023/05/17 09:41:25;;;;;;;7.43;1.90;;;;;;;;;;5113542;28;20040;-80
2023/05/17 09:44:12;;;;;;;6.00;2.30;;;;;;;;;;5114550;28;20039;-75
2023/05/17 09:46:58;;;;;;;8.30;2.60;;;;;;;;;;5118711;28;20039;-82
2023/05/17 09:49:44;;;;;;;6.20;2.70;;;;;;;;;;5103247;28;20472;-82
2023/05/17 09:52:30;;;;;;;13.20;4.57;;;;;;;;;;5117851;28;20087;-81
2023/05/17 09:55:16;;;;;;;12.40;2.75;;;;;;;;;;5118020;28;20039;-84
2023/05/17 09:58:02;;;;;;;11.23;2.65;;;;;;;;;;5118135;28;20040;-81
2023/05/17 10:01:16;;;;;;;6.20;2.33;;;;;;;;;;5116902;28;20044;-81
2023/05/17 10:04:09;;;;;;;10.30;3.97;;;;;;;;;;5124505;28;20047;-84
2023/05/17 10:07:02;;;;;;;5.85;2.78;;;;;;;;;;5116745;28;20040;-81
2023/05/17 10:10:02;;;;;;;12.98;4.82;;;;;;;;;;5122744;28;20047;-82
2023/05/17 10:12:53;;;;;;;6.72;2.88;;;;;;;;;;5067934;28;20052;-77
2023/05/17 10:15:47;;;;;;;8.13;2.92;;;;;;;;;;5076688;28;20048;-80
2023/05/17 10:18:33;;;;;;;8.68;2.78;;;;;;;;;;5075477;28;20053;-84
2023/05/17 10:21:21;;;;;;;10.23;3.08;;;;;;;;;;5076441;28;20040;-81
2023/05/17 10:24:08;;;;;;;7.78;2.40;;;;;;;;;;5075976;28;20040;-81
2023/05/17 10:26:55;;;;;;;8.82;2.42;;;;;;;;;;5076007;28;20044;-82
2023/05/17 10:29:41;;;;;;;7.82;2.47;;;;;;;;;;5081999;28;20037;-85
2023/05/17 10:32:27;;;;;;;6.65;2.95;;;;;;;;;;5076223;28;20049;-84
2023/05/17 10:35:21;;;;;;;9.35;2.85;;;;;;;;;;5076330;28;20048;-82
2023/05/17 10:38:14;;;;;;;9.50;2.97;;;;;;;;;;5068553;28;20052;-81
2023/05/17 10:41:08;;;;;;;6.75;3.03;;;;;;;;;;5081185;28;20393;-80
2023/05/17 10:44:29;;;;;;;10.93;3.08;;;;;;;;;;5075086;28;20061;-82
2023/05/17 10:47:32;;;;;;;10.07;2.63;;;;;;;;;;5079992;28;20060;-82
2023/05/17 10:50:28;;;;;;;8.10;3.97;;;;;;;;;;5075501;28;20045;-83
2023/05/17 10:53:16;;;;;;;12.90;3.60;;;;;;;;;;5074489;28;20052;-80
2023/05/17 10:56:07;;;;;;;10.88;3.28;;;;;;;;;;5087429;28;20044;-82
2023/05/17 10:59:30;;;;;;;5.88;2.75;;;;;;;;;;5076371;28;20041;-84
2023/05/17 11:02:22;;;;;;;7.28;3.00;;;;;;;;;;5052523;28;20044;-84
2023/05/17 11:05:23;;;;;;;8.43;3.50;;;;;;;;;;5076382;28;20398;-82
2023/05/17 11:08:14;;;;;;;12.63;3.95;;;;;;;;;;5078131;28;20040;-80
2023/05/17 11:11:17;;;;;;;10.30;3.22;;;;;;;;;;5096085;28;20039;-84
2023/05/17 11:14:04;;;;;;;11.90;3.55;;;;;;;;;;5119706;28;20043;-84
2023/05/17 11:16:55;;;;;;;7.65;3.25;;;;;;;;;;5118416;28;20040;-81
2023/05/17 11:19:49;;;;;;;13.02;4.18;;;;;;;;;;5119902;28;20036;-82
2023/05/17 11:22:42;;;;;;;10.45;3.38;;;;;;;;;;5120215;28;20488;-84
2023/05/17 11:25:36;;;;;;;9.75;3.42;;;;;;;;;;5106562;28;20048;-84
2023/05/17 11:28:22;;;;;;;8.65;4.05;;;;;;;;;;5116231;28;20039;-88
2023/05/17 11:31:09;;;;;;;11.95;3.50;;;;;;;;;;5115123;28;20047;-84
2023/05/17 11:33:54;;;;;;;10.45;3.83;;;;;;;;;;5107093;28;20039;-87
2023/05/17 11:36:55;;;;;;;9.40;3.22;;;;;;;;;;5106869;28;20055;-87
2023/05/17 11:40:04;;;;;;;8.35;3.20;;;;;;;;;;5115109;28;20039;-85
2023/05/17 11:43:08;;;;;;;8.00;3.70;;;;;;;;;;5107725;28;20047;-85
2023/05/17 11:46:00;;;;;;;;;;;;;;;;;;5117780;28;20381;-87
2023/05/17 11:48:46;;;;;;;9.85;3.60;;;;;;;;;;5100096;28;19915;-82
2023/05/17 11:51:31;;;;;;;6.88;4.20;;;;;;;;;;5116177;28;20472;-81
2023/05/17 11:54:20;;;;;;;9.43;4.15;;;;;;;;;;5116036;28;20039;-84
2023/05/17 11:57:06;;;;;;;10.13;2.80;;;;;;;;;;5115737;28;20396;-85
2023/05/17 11:59:57;;;;;;;7.15;2.90;;;;;;;;;;5115924;28;20039;-81
2023/05/17 12:02:42;;;;;;;8.95;3.15;;;;;;;;;;5115331;28;20489;-81
2023/05/17 12:05:28;;;;;;;5.50;2.45;;;;;;;;;;5115502;28;20039;-84
2023/05/17 12:08:16;;;;;;;7.30;1.77;;;;;;;;;;5115090;28;20389;-81
2023/05/17 12:11:03;;;;;;;5.45;1.52;;;;;;;;;;5115145;28;20035;-81
2023/05/17 12:13:50;;;;;;;2.08;1.23;;;;;;;;;;5115400;28;20047;-80
2023/05/17 12:16:40;;;;;;;6.80;2.33;;;;;;;;;;5115752;28;20043;-80
2023/05/17 12:19:28;;;;;;;6.70;2.13;;;;;;;;;;5115297;28;20035;-81
2023/05/17 12:22:14;;;;;;;6.03;2.05;;;;;;;;;;5114780;28;20036;-82
2023/05/17 12:24:59;;;;;;;4.97;1.60;;;;;;;;;;5115342;28;20051;-81
2023/05/17 12:27:45;;;;;;;5.57;1.90;;;;;;;;;;5122172;28;20052;-78
2023/05/17 12:30:29;;;;;;;4.93;1.55;;;;;;;;;;5115258;28;20044;-77
2023/05/17 12:33:15;;;;;;;4.38;1.50;;;;;;;;;;5115278;28;20481;-81
2023/05/17 12:36:02;;;;;;;4.25;1.60;;;;;;;;;;5114939;28;20036;-81
2023/05/17 12:38:48;;;;;;;5.38;1.50;;;;;;;;;;5115246;28;20039;-80
2023/05/17 12:41:33;;;;;;;3.75;1.67;;;;;;;;;;5114766;28;20407;-78
2023/05/17 12:44:19;;;;;;;7.32;2.75;;;;;;;;;;5115287;28;20044;-77
2023/05/17 12:47:05;;;;;;;9.13;2.70;;;;;;;;;;5114708;28;20051;-78
2023/05/17 12:49:53;;;;;;;7.65;3.00;;;;;;;;;;5114703;28;20036;-78
2023/05/17 12:52:40;;;;;;;9.40;3.20;;;;;;;;;;5114714;28;20044;-80
2023/05/17 12:55:25;;;;;;;4.50;2.20;;;;;;;;;;5114438;28;20040;-77
2023/05/17 12:58:10;;;;;;;7.05;2.83;;;;;;;;;;5114376;28;20040;-79
2023/05/17 13:01:06;;;;;;;6.47;3.40;;;;;;;;;;5099463;28;20051;-79
2023/05/17 13:03:51;;;;;;;12.48;3.80;;;;;;;;;;5114636;28;20044;-77
2023/05/17 13:06:56;;;;;;;6.10;2.72;;;;;;;;;;5114553;28;20126;-77
2023/05/17 13:09:48;;;;;;;4.43;1.88;;;;;;;;;;5114219;28;20039;-77
2023/05/17 13:12:37;;;;;;;5.50;1.35;;;;;;;;;;5114213;28;20044;-81
2023/05/17 13:15:30;;;;;;;5.13;2.65;;;;;;;;;;5114677;28;20044;-80
2023/05/17 13:18:16;;;;;;;5.88;1.92;;;;;;;;;;5114456;28;20031;-78
2023/05/17 13:21:02;;;;;;;4.43;2.20;;;;;;;;;;5114371;28;20039;-80
2023/05/17 13:23:48;;;;;;;7.03;3.92;;;;;;;;;;5113787;28;20032;-78
2023/05/17 13:26:34;;;;;;;9.35;4.45;;;;;;;;;;5114205;28;20043;-79
2023/05/17 13:29:20;;;;;;;4.10;2.03;;;;;;;;;;5114011;28;20043;-79
2023/05/17 13:32:07;;;;;;;2.75;1.70;;;;;;;;;;5114415;28;20043;-78
2023/05/17 13:34:52;;;;;;;5.97;2.38;;;;;;;;;;5099073;28;20044;-78
2023/05/17 13:37:37;;;;;;;4.60;1.75;;;;;;;;;;5114059;28;20392;-78
2023/05/17 13:40:23;;;;;;;3.60;1.60;;;;;;;;;;5114091;28;20048;-80
2023/05/17 13:43:08;;;;;;;4.47;1.95;;;;;;;;;;5114160;28;20040;-78
2023/05/17 13:45:57;;;;;;;6.88;2.30;;;;;;;;;;5113882;28;20043;-78
2023/05/17 13:48:43;;;;;;;7.38;2.13;;;;;;;;;;5113866;28;20039;-78
2023/05/17 13:51:29;;;;;;;4.43;2.00;;;;;;;;;;5113812;28;20040;-80
2023/05/17 13:54:14;;;;;;;5.53;1.90;;;;;;;;;;5114302;28;20039;-79
2023/05/17 13:57:00;;;;;;;5.78;2.20;;;;;;;;;;5113894;28;20043;-80
2023/05/17 13:59:46;;;;;;;9.18;4.22;;;;;;;;;;5113779;28;20036;-81
2023/05/17 14:02:31;;;;;;;17.92;7.60;;;;;;;;;;5113793;28;20469;-78
2023/05/17 14:05:17;;;;;;;10.80;5.75;;;;;;;;;;5105183;28;20048;-80
2023/05/17 14:08:03;;;;;;;15.75;6.88;;;;;;;;;;5113864;28;20039;-78
2023/05/17 14:10:48;;;;;;;24.77;9.93;;;;;;;;;;5113596;28;20039;-78
2023/05/17 14:13:34;;;;;;;9.48;4.65;;;;;;;;;;5113499;28;20047;-81
2023/05/17 14:16:21;;;;;;;6.40;3.40;;;;;;;;;;5114081;28;20051;-79
2023/05/17 14:19:06;;;;;;;8.27;3.78;;;;;;;;;;5111480;28;20043;-81
2023/05/17 14:21:52;;;;;;;6.10;2.60;;;;;;;;;;5112943;28;20044;-79
2023/05/17 14:24:37;;;;;;;5.93;2.72;;;;;;;;;;5112503;28;20051;-82
2023/05/17 14:27:23;;;;;;;4.88;2.40;;;;;;;;;;5112585;28;20047;-80
2023/05/17 14:30:09;;;;;;;7.47;2.85;;;;;;;;;;5113174;28;20048;-80
2023/05/17 14:32:54;;;;;;;4.70;1.95;;;;;;;;;;5116447;28;20052;-78
2023/05/17 14:35:40;;;;;;;6.20;2.47;;;;;;;;;;5116369;28;20040;-81
2023/05/17 14:38:25;;;;;;;5.60;2.17;;;;;;;;;;5115769;28;20044;-79
2023/05/17 14:41:11;;;;;;;5.97;2.60;;;;;;;;;;5116152;28;20051;-80
2023/05/17 14:43:56;;;;;;;6.55;3.03;;;;;;;;;;5116014;28;20040;-80
2023/05/17 14:46:42;;;;;;;8.13;3.50;;;;;;;;;;5116544;28;20393;-79
2023/05/17 14:49:27;;;;;;;7.15;3.35;;;;;;;;;;5117081;28;20048;-79
2023/05/17 14:52:13;;;;;;;5.53;3.47;;;;;;;;;;5117154;28;20039;-78
2023/05/17 14:54:59;;;;;;;6.05;2.60;;;;;;;;;;5116980;28;20048;-78
2023/05/17 14:57:44;;;;;;;7.38;2.90;;;;;;;;;;5117258;28;20473;-78
2023/05/17 15:00:30;;;;;;;7.30;3.20;;;;;;;;;;5117014;28;20505;-77
2023/05/17 15:03:15;;;;;;;7.22;2.30;;;;;;;;;;5115914;28;20040;-77
2023/05/17 15:06:01;;;;;;;7.25;2.30;;;;;;;;;;5116974;28;20044;-78
2023/05/17 15:08:47;;;;;;;7.95;3.08;;;;;;;;;;5116398;28;20047;-78
2023/05/17 15:11:32;;;;;;;9.52;2.72;;;;;;;;;;5116609;28;20052;-77
2023/05/17 15:14:21;;;;;;;5.70;3.50;;;;;;;;;;5116610;28;20043;-77
2023/05/17 15:17:07;;;;;;;9.00;3.63;;;;;;;;;;5116221;28;20047;-77
2023/05/17 15:19:52;;;;;;;6.95;3.92;;;;;;;;;;5116673;28;20044;-77
2023/05/17 15:22:38;;;;;;;11.32;3.58;;;;;;;;;;5116250;28;20040;-77
2023/05/17 15:25:23;;;;;;;50.53;30.60;;;;;;;;;;5116409;28;20039;-77
2023/05/17 15:28:09;;;;;;;30.08;16.08;;;;;;;;;;5116500;28;20047;-78
2023/05/17 15:31:09;;;;;;;15.88;8.13;;;;;;;;;;5116168;28;20040;-77
2023/05/17 15:33:55;;;;;;;15.73;7.28;;;;;;;;;;5116233;28;20043;-78
2023/05/17 15:36:41;;;;;;;11.98;6.43;;;;;;;;;;5116191;28;20048;-78
2023/05/17 15:39:26;;;;;;;11.95;5.22;;;;;;;;;;5116623;28;20035;-79
2023/05/17 15:42:12;;;;;;;10.23;3.85;;;;;;;;;;5115049;28;20039;-77
2023/05/17 15:44:57;;;;;;;11.07;5.53;;;;;;;;;;5115732;28;20043;-81
2023/05/17 15:47:43;;;;;;;7.32;4.20;;;;;;;;;;5116080;28;20040;-80
2023/05/17 15:50:29;;;;;;;11.18;4.30;;;;;;;;;;5107150;28;20512;-81
2023/05/17 15:53:15;;;;;;;8.60;3.22;;;;;;;;;;5113569;28;20043;-82
2023/05/17 15:56:01;;;;;;;9.02;3.33;;;;;;;;;;5116257;28;20386;-80
2023/05/17 15:58:46;;;;;;;4.68;2.70;;;;;;;;;;5115675;28;20389;-81
2023/05/17 16:01:32;;;;;;;7.78;2.80;;;;;;;;;;5115808;28;20048;-82
2023/05/17 16:04:17;;;;;;;7.47;3.83;;;;;;;;;;5098904;28;20047;-79
2023/05/17 16:07:03;;;;;;;9.63;3.30;;;;;;;;;;5115554;28;20040;-78
2023/05/17 16:09:48;;;;;;;7.68;3.05;;;;;;;;;;5115777;28;20047;-78
2023/05/17 16:12:34;;;;;;;5.65;3.30;;;;;;;;;;5113183;28;20047;-77
2023/05/17 16:15:20;;;;;;;10.35;4.13;;;;;;;;;;5114214;28;20047;-77
2023/05/17 16:18:05;;;;;;;9.63;5.90;;;;;;;;;;5114133;28;20035;-76
2023/05/17 16:21:04;;;;;;;8.77;4.97;;;;;;;;;;5113979;28;20039;-77
2023/05/17 16:23:48;;;;;;;8.52;4.88;;;;;;;;;;5113626;28;20044;-80
2023/05/17 16:26:34;;;;;;;14.48;7.68;;;;;;;;;;5113743;28;20060;-80
2023/05/17 16:29:20;;;;;;;12.15;5.78;;;;;;;;;;5113988;28;20040;-80
2023/05/17 16:32:06;;;;;;;7.88;5.10;;;;;;;;;;5092550;28;20039;-79
2023/05/17 16:34:52;;;;;;;9.32;5.45;;;;;;;;;;5114609;28;20043;-78
2023/05/17 16:37:37;;;;;;;11.45;5.95;;;;;;;;;;5114741;28;20039;-78
2023/05/17 16:40:23;;;;;;;9.77;5.82;;;;;;;;;;5114781;28;20047;-80